createdAt,value
2022-09-24T00:02:55.463Z,6.90
2022-09-24T00:08:04.074Z,6.20
2022-09-24T00:13:15.142Z,7.37
2022-09-24T00:18:23.833Z,6.43
2022-09-24T00:23:33.403Z,6.47
2022-09-24T00:28:42.335Z,7.10
2022-09-24T00:33:52.460Z,6.97
2022-09-24T00:39:01.250Z,5.87
2022-09-24T00:44:13.479Z,6.87
2022-09-24T00:49:21.900Z,7.13
2022-09-24T00:54:30.500Z,5.70
2022-09-24T00:59:38.990Z,7.20
2022-09-24T01:04:50.444Z,6.87
2022-09-24T01:09:59.140Z,7.87
2022-09-24T01:15:12.212Z,7.07
2022-09-24T01:25:42.112Z,8.00
2022-09-24T01:30:50.162Z,7.73
2022-09-24T01:36:02.329Z,10.50
2022-09-24T01:41:11.547Z,8.53
2022-09-24T01:46:19.990Z,8.33
2022-09-24T01:51:31.981Z,9.17
2022-09-24T01:56:43.434Z,9.20
2022-09-24T02:01:56.385Z,8.13
2022-09-24T02:07:08.798Z,9.00
2022-09-24T02:12:19.844Z,9.47
2022-09-24T02:17:30.637Z,11.37
2022-09-24T02:22:39.172Z,12.10
2022-09-24T02:27:47.339Z,11.47
2022-09-24T02:32:55.567Z,9.80
2022-09-24T02:38:06.318Z,9.83
2022-09-24T02:43:15.982Z,9.37
2022-09-24T02:48:25.432Z,10.63
2022-09-24T02:53:44.778Z,10.63
2022-09-24T02:58:54.923Z,11.30
2022-09-24T03:04:04.682Z,10.57
2022-09-24T03:09:13.948Z,10.50
2022-09-24T03:14:22.583Z,14.90
2022-09-24T03:19:31.878Z,13.87
2022-09-24T03:24:40.271Z,16.50
2022-09-24T03:29:51.279Z,16.90
2022-09-24T03:34:59.191Z,12.77
2022-09-24T03:40:08.262Z,14.23
2022-09-24T03:45:16.640Z,13.83
2022-09-24T03:50:25.030Z,12.47
2022-09-24T03:55:33.909Z,11.83
2022-09-24T04:00:42.767Z,11.47
2022-09-24T04:05:51.831Z,12.77
2022-09-24T04:11:00.174Z,12.60
2022-09-24T04:16:08.399Z,12.73
2022-09-24T04:21:16.775Z,12.27
2022-09-24T04:26:24.995Z,11.53
2022-09-24T04:31:33.638Z,12.30
2022-09-24T04:36:42.990Z,12.03
2022-09-24T04:41:51.453Z,12.70
2022-09-24T04:47:04.531Z,12.13
2022-09-24T04:52:15.215Z,12.47
2022-09-24T04:57:25.045Z,12.47
2022-09-24T05:02:35.130Z,11.87
2022-09-24T05:07:44.979Z,12.73
2022-09-24T05:12:53.658Z,13.67
2022-09-24T05:18:01.952Z,13.90
2022-09-24T05:23:10.356Z,15.37
2022-09-24T05:28:23.102Z,15.13
2022-09-24T05:33:31.537Z,18.00
2022-09-24T05:38:42.092Z,15.57
2022-09-24T05:43:51.357Z,14.87
2022-09-24T05:49:01.359Z,12.00
2022-09-24T05:54:09.837Z,13.80
2022-09-24T05:59:20.418Z,14.73
2022-09-24T06:09:44.514Z,12.30
2022-09-24T06:14:54.376Z,11.53
2022-09-24T06:20:06.219Z,11.63
2022-09-24T06:25:16.012Z,13.17
2022-09-24T06:30:24.301Z,13.07
2022-09-24T06:35:36.245Z,9.83
2022-09-24T06:40:45.889Z,11.83
2022-09-24T06:45:57.234Z,10.40
2022-09-24T06:51:06.394Z,9.63
2022-09-24T06:56:14.802Z,9.13
2022-09-24T07:01:23.183Z,11.13
2022-09-24T07:06:34.050Z,9.00
2022-09-24T07:11:44.041Z,7.07
2022-09-24T07:16:55.291Z,6.40
2022-09-24T07:22:03.927Z,6.33
2022-09-24T07:27:33.787Z,6.13
2022-09-24T07:32:42.753Z,5.77
2022-09-24T07:37:54.043Z,5.10
2022-09-24T07:43:02.659Z,5.27
2022-09-24T07:48:11.262Z,4.47
2022-09-24T07:53:19.368Z,4.60
2022-09-24T07:58:28.565Z,4.77
2022-09-24T08:03:37.342Z,4.40
2022-09-24T08:08:46.765Z,4.30
2022-09-24T08:13:57.028Z,4.70
2022-09-24T08:19:05.626Z,4.23
2022-09-24T08:24:14.493Z,4.33
2022-09-24T08:29:23.841Z,3.80
2022-09-24T08:34:35.162Z,3.97
2022-09-24T08:39:46.386Z,4.13
2022-09-24T08:44:57.942Z,4.40
2022-09-24T08:50:10.637Z,3.43
2022-09-24T08:55:21.913Z,3.53
2022-09-24T09:00:30.671Z,3.37
2022-09-24T09:05:45.893Z,3.53
2022-09-24T09:10:52.556Z,3.70
2022-09-24T09:16:04.303Z,3.30
2022-09-24T09:21:16.169Z,3.03
2022-09-24T09:26:26.078Z,3.23
2022-09-24T09:31:37.395Z,3.20
2022-09-24T09:36:48.487Z,3.40
2022-09-24T09:41:59.960Z,3.10
2022-09-24T09:47:14.038Z,2.90
2022-09-24T09:52:25.528Z,2.97
2022-09-24T09:57:33.833Z,3.30
2022-09-24T10:02:43.440Z,3.10
2022-09-24T10:08:00.306Z,3.40
2022-09-24T10:13:10.235Z,3.20
2022-09-24T10:18:18.782Z,3.57
2022-09-24T10:23:31.129Z,4.23
2022-09-24T10:28:42.989Z,3.37
2022-09-24T10:33:53.436Z,2.97
2022-09-24T10:39:05.319Z,3.27
2022-09-24T10:44:14.410Z,3.63
2022-09-24T10:49:26.640Z,2.57
2022-09-24T10:59:47.324Z,3.17
2022-09-24T11:04:59.479Z,3.40
2022-09-24T11:10:11.135Z,3.07
2022-09-24T11:15:22.204Z,2.73
2022-09-24T11:20:33.340Z,2.60
2022-09-24T11:25:45.024Z,2.33
2022-09-24T11:30:55.316Z,2.57
2022-09-24T11:36:05.777Z,2.03
2022-09-24T11:41:17.250Z,2.07
2022-09-24T11:46:30.824Z,2.73
2022-09-24T11:51:41.919Z,2.17
2022-09-24T11:56:53.750Z,2.07
2022-09-24T12:02:05.467Z,2.23
2022-09-24T12:07:15.842Z,1.90
2022-09-24T12:12:27.044Z,1.90
2022-09-24T12:17:39.599Z,2.10
2022-09-24T12:22:50.588Z,1.70
2022-09-24T12:28:01.544Z,1.90
2022-09-24T12:33:12.956Z,1.63
2022-09-24T12:38:24.365Z,1.50
2022-09-24T12:43:35.568Z,1.47
2022-09-24T12:48:44.338Z,2.10
2022-09-24T12:53:55.804Z,1.70
2022-09-24T12:59:05.899Z,1.40
2022-09-24T13:04:18.254Z,1.80
2022-09-24T13:09:31.813Z,1.40
2022-09-24T13:14:41.393Z,1.63
2022-09-24T13:19:49.999Z,1.43
2022-09-24T13:25:02.007Z,1.30
2022-09-24T13:30:16.589Z,1.50
2022-09-24T13:35:29.542Z,1.43
2022-09-24T13:40:40.458Z,1.30
2022-09-24T13:45:49.001Z,1.30
2022-09-24T13:50:58.077Z,1.47
2022-09-24T13:56:09.173Z,1.40
2022-09-24T14:01:20.567Z,1.40
2022-09-24T14:06:32.305Z,1.40
2022-09-24T14:11:40.693Z,1.60
2022-09-24T14:16:49.066Z,1.30
2022-09-24T14:22:04.217Z,1.60
2022-09-24T14:27:16.518Z,1.00
2022-09-24T14:32:28.368Z,1.60
2022-09-24T14:37:39.613Z,1.70
2022-09-24T14:42:50.043Z,1.20
2022-09-24T14:48:02.039Z,1.17
2022-09-24T14:53:13.794Z,1.53
2022-09-24T14:58:24.845Z,1.70
2022-09-24T15:03:36.772Z,2.10
2022-09-24T15:08:50.205Z,2.70
2022-09-24T15:14:00.455Z,1.30
2022-09-24T15:19:12.566Z,1.60
2022-09-24T15:24:22.481Z,1.40
2022-09-24T15:29:30.644Z,1.60
2022-09-24T15:34:39.078Z,2.07
2022-09-24T15:39:49.510Z,2.10
2022-09-24T15:44:58.938Z,1.90
2022-09-24T15:50:08.131Z,1.93
2022-09-24T15:55:18.378Z,2.13
2022-09-24T16:00:27.929Z,2.47
2022-09-24T16:05:36.765Z,2.03
2022-09-24T16:10:46.544Z,2.10
2022-09-24T16:15:55.492Z,2.80
2022-09-24T16:21:08.823Z,3.70
2022-09-24T16:26:17.659Z,3.73
2022-09-24T16:31:28.272Z,3.37
2022-09-24T16:36:39.106Z,3.60
2022-09-24T16:41:52.019Z,3.77
2022-09-24T16:47:00.702Z,3.90
2022-09-24T16:52:08.919Z,5.07
2022-09-24T16:57:17.368Z,4.80
2022-09-24T17:02:26.480Z,5.20
2022-09-24T17:07:35.500Z,5.27
2022-09-24T17:12:45.591Z,6.97
2022-09-24T17:17:54.277Z,7.77
2022-09-24T17:23:04.409Z,14.07
2022-09-24T17:28:12.570Z,17.27
2022-09-24T17:33:42.195Z,19.63
2022-09-24T17:38:45.972Z,26.00
2022-09-24T17:43:53.963Z,25.70
2022-09-24T17:49:02.125Z,25.13
2022-09-24T17:54:13.706Z,23.33
2022-09-24T17:59:27.269Z,22.10
2022-09-24T18:04:37.326Z,21.70
2022-09-24T18:09:45.876Z,20.20
2022-09-24T18:14:55.139Z,21.03
2022-09-24T18:20:04.270Z,20.00
2022-09-24T18:25:19.003Z,20.50
2022-09-24T18:30:28.056Z,19.50
2022-09-24T18:35:38.920Z,20.80
2022-09-24T18:40:47.849Z,20.50
2022-09-24T18:45:57.781Z,19.27
2022-09-24T18:51:08.446Z,21.17
2022-09-24T18:56:17.785Z,24.30
2022-09-24T19:01:49.198Z,22.33
2022-09-24T19:07:31.040Z,18.80
2022-09-24T19:12:41.340Z,15.03
2022-09-24T19:17:53.979Z,16.87
2022-09-24T19:23:02.081Z,19.20
2022-09-24T19:28:12.058Z,23.03
2022-09-24T19:33:27.105Z,23.47
2022-09-24T19:38:37.255Z,21.00
2022-09-24T19:43:46.332Z,21.80
2022-09-24T19:48:55.395Z,17.00
2022-09-24T19:54:08.113Z,17.13
2022-09-24T19:59:19.898Z,15.53
2022-09-24T20:04:28.077Z,14.13
2022-09-24T20:09:41.676Z,12.93
2022-09-24T20:14:52.092Z,12.90
2022-09-24T20:20:05.242Z,11.80
2022-09-24T20:25:14.037Z,12.03
2022-09-24T20:30:24.607Z,9.93
2022-09-24T20:35:34.053Z,11.90
2022-09-24T20:40:44.079Z,12.53
2022-09-24T20:45:53.723Z,12.13
2022-09-24T20:51:04.575Z,12.13
2022-09-24T20:56:14.692Z,11.13
2022-09-24T21:01:25.140Z,10.97
2022-09-24T21:06:34.949Z,11.07
2022-09-24T21:11:44.324Z,14.20
2022-09-24T21:16:55.255Z,14.87
2022-09-24T21:22:03.831Z,15.40
2022-09-24T21:27:12.193Z,14.30
2022-09-24T21:32:21.591Z,14.90
2022-09-24T21:37:29.619Z,13.10
2022-09-24T21:42:38.353Z,12.30
2022-09-24T21:47:46.649Z,14.13
2022-09-24T21:52:56.147Z,14.00
2022-09-24T21:58:05.706Z,17.77
2022-09-24T22:03:14.535Z,17.60
2022-09-24T22:08:25.106Z,17.23
2022-09-24T22:13:34.808Z,17.20
2022-09-24T22:18:44.214Z,17.33
2022-09-24T22:23:52.231Z,19.63
2022-09-24T22:29:00.238Z,15.33
2022-09-24T22:34:09.813Z,16.37
2022-09-24T22:39:17.719Z,17.07
2022-09-24T22:44:25.556Z,15.63
2022-09-24T22:49:33.474Z,14.03
2022-09-24T22:54:41.363Z,11.60
2022-09-24T22:59:49.974Z,10.10
2022-09-24T23:04:58.149Z,10.37
2022-09-24T23:10:07.450Z,11.37
2022-09-24T23:15:15.800Z,12.37
2022-09-24T23:20:24.476Z,9.70
2022-09-24T23:25:32.309Z,9.93
2022-09-24T23:30:40.342Z,11.00
2022-09-24T23:35:51.426Z,9.43
2022-09-24T23:41:00.787Z,8.37
2022-09-24T23:46:09.343Z,8.90
2022-09-24T23:51:17.489Z,9.37
2022-09-24T23:56:25.473Z,9.27
